sensor_id;sensor_type;location;lat;lon;timestamp;P1;durP1;ratioP1;P2;durP2;ratioP2
25299;SDS011;13241;51.208;4.432;2022-12-16T00:02:06;13.52;;;6.63;;
25299;SDS011;13241;51.208;4.432;2022-12-16T00:04:32;10.85;;;6.93;;
25299;SDS011;13241;51.208;4.432;2022-12-16T00:06:59;15.40;;;8.23;;
25299;SDS011;13241;51.208;4.432;2022-12-16T00:09:26;17.85;;;7.75;;
25299;SDS011;13241;51.208;4.432;2022-12-16T00:11:53;18.10;;;10.25;;
25299;SDS011;13241;51.208;4.432;2022-12-16T00:14:19;22.17;;;10.15;;
25299;SDS011;13241;51.208;4.432;2022-12-16T00:16:46;19.45;;;9.07;;
25299;SDS011;13241;51.208;4.432;2022-12-16T00:19:13;24.92;;;8.63;;
25299;SDS011;13241;51.208;4.432;2022-12-16T00:21:40;22.67;;;7.60;;
25299;SDS011;13241;51.208;4.432;2022-12-16T00:24:07;20.83;;;10.40;;
25299;SDS011;13241;51.208;4.432;2022-12-16T00:26:33;19.02;;;10.00;;
25299;SDS011;13241;51.208;4.432;2022-12-16T00:29:00;15.13;;;7.43;;
25299;SDS011;13241;51.208;4.432;2022-12-16T00:31:27;14.73;;;9.13;;
25299;SDS011;13241;51.208;4.432;2022-12-16T00:33:55;17.30;;;9.25;;
25299;SDS011;13241;51.208;4.432;2022-12-16T00:36:22;17.80;;;8.63;;
25299;SDS011;13241;51.208;4.432;2022-12-16T00:38:50;24.92;;;11.63;;
25299;SDS011;13241;51.208;4.432;2022-12-16T00:41:19;21.45;;;9.98;;
25299;SDS011;13241;51.208;4.432;2022-12-16T00:43:46;34.72;;;12.48;;
25299;SDS011;13241;51.208;4.432;2022-12-16T00:46:13;18.23;;;11.38;;
25299;SDS011;13241;51.208;4.432;2022-12-16T00:48:40;18.33;;;10.60;;
25299;SDS011;13241;51.208;4.432;2022-12-16T00:51:07;16.75;;;10.45;;
25299;SDS011;13241;51.208;4.432;2022-12-16T00:53:33;26.02;;;11.93;;
25299;SDS011;13241;51.208;4.432;2022-12-16T00:56:02;16.48;;;9.50;;
25299;SDS011;13241;51.208;4.432;2022-12-16T00:58:36;28.02;;;10.45;;
25299;SDS011;13241;51.208;4.432;2022-12-16T01:01:03;17.23;;;10.07;;
25299;SDS011;13241;51.208;4.432;2022-12-16T01:03:30;18.33;;;9.80;;
25299;SDS011;13241;51.208;4.432;2022-12-16T01:05:57;14.45;;;9.13;;
25299;SDS011;13241;51.208;4.432;2022-12-16T01:08:25;24.50;;;11.80;;
25299;SDS011;13241;51.208;4.432;2022-12-16T01:10:55;17.20;;;11.02;;
25299;SDS011;13241;51.208;4.432;2022-12-16T01:13:23;24.98;;;11.18;;
25299;SDS011;13241;51.208;4.432;2022-12-16T01:15:51;18.40;;;11.48;;
25299;SDS011;13241;51.208;4.432;2022-12-16T01:18:18;21.08;;;10.93;;
25299;SDS011;13241;51.208;4.432;2022-12-16T01:20:45;18.85;;;9.65;;
25299;SDS011;13241;51.208;4.432;2022-12-16T01:23:12;24.88;;;11.70;;
25299;SDS011;13241;51.208;4.432;2022-12-16T01:25:38;20.70;;;11.73;;
25299;SDS011;13241;51.208;4.432;2022-12-16T01:28:05;22.42;;;11.10;;
25299;SDS011;13241;51.208;4.432;2022-12-16T01:30:33;17.38;;;9.77;;
25299;SDS011;13241;51.208;4.432;2022-12-16T01:33:00;27.30;;;10.82;;
25299;SDS011;13241;51.208;4.432;2022-12-16T01:35:27;24.45;;;11.50;;
25299;SDS011;13241;51.208;4.432;2022-12-16T01:38:15;22.38;;;11.75;;
25299;SDS011;13241;51.208;4.432;2022-12-16T01:40:42;21.20;;;10.90;;
25299;SDS011;13241;51.208;4.432;2022-12-16T01:43:10;17.90;;;10.73;;
25299;SDS011;13241;51.208;4.432;2022-12-16T01:45:39;25.80;;;11.10;;
25299;SDS011;13241;51.208;4.432;2022-12-16T01:48:13;31.75;;;12.50;;
25299;SDS011;13241;51.208;4.432;2022-12-16T01:51:01;19.88;;;10.18;;
25299;SDS011;13241;51.208;4.432;2022-12-16T01:53:32;27.15;;;13.02;;
25299;SDS011;13241;51.208;4.432;2022-12-16T01:56:01;28.35;;;12.93;;
25299;SDS011;13241;51.208;4.432;2022-12-16T01:58:29;18.25;;;10.38;;
25299;SDS011;13241;51.208;4.432;2022-12-16T02:00:59;21.52;;;12.18;;
25299;SDS011;13241;51.208;4.432;2022-12-16T02:03:29;30.60;;;14.23;;
25299;SDS011;13241;51.208;4.432;2022-12-16T02:06:01;18.38;;;10.38;;
25299;SDS011;13241;51.208;4.432;2022-12-16T02:08:30;35.47;;;14.27;;
25299;SDS011;13241;51.208;4.432;2022-12-16T02:18:54;17.33;;;8.63;;
25299;SDS011;13241;51.208;4.432;2022-12-16T02:35:36;15.38;;;7.07;;
25299;SDS011;13241;51.208;4.432;2022-12-16T02:38:15;12.10;;;5.97;;
25299;SDS011;13241;51.208;4.432;2022-12-16T02:40:51;12.27;;;7.63;;
25299;SDS011;13241;51.208;4.432;2022-12-16T02:46:04;15.55;;;8.30;;
25299;SDS011;13241;51.208;4.432;2022-12-16T02:48:33;15.68;;;8.35;;
25299;SDS011;13241;51.208;4.432;2022-12-16T02:51:00;12.10;;;6.93;;
25299;SDS011;13241;51.208;4.432;2022-12-16T02:53:27;16.23;;;8.90;;
25299;SDS011;13241;51.208;4.432;2022-12-16T02:58:39;15.38;;;7.95;;
25299;SDS011;13241;51.208;4.432;2022-12-16T03:03:53;7.07;;;5.80;;
25299;SDS011;13241;51.208;4.432;2022-12-16T03:06:22;22.52;;;8.52;;
25299;SDS011;13241;51.208;4.432;2022-12-16T03:08:52;14.13;;;8.27;;
25299;SDS011;13241;51.208;4.432;2022-12-16T03:11:23;13.98;;;7.30;;
25299;SDS011;13241;51.208;4.432;2022-12-16T03:13:53;17.98;;;10.32;;
25299;SDS011;13241;51.208;4.432;2022-12-16T03:16:22;14.93;;;6.57;;
25299;SDS011;13241;51.208;4.432;2022-12-16T03:18:56;8.65;;;6.68;;
25299;SDS011;13241;51.208;4.432;2022-12-16T03:21:35;17.42;;;8.38;;
25299;SDS011;13241;51.208;4.432;2022-12-16T03:24:09;12.60;;;7.88;;
25299;SDS011;13241;51.208;4.432;2022-12-16T03:32:11;13.57;;;7.75;;
25299;SDS011;13241;51.208;4.432;2022-12-16T03:34:44;13.18;;;6.55;;
25299;SDS011;13241;51.208;4.432;2022-12-16T03:37:19;9.75;;;5.85;;
25299;SDS011;13241;51.208;4.432;2022-12-16T03:39:50;15.60;;;6.60;;
25299;SDS011;13241;51.208;4.432;2022-12-16T03:42:20;14.77;;;7.80;;
25299;SDS011;13241;51.208;4.432;2022-12-16T03:44:48;18.63;;;8.23;;
25299;SDS011;13241;51.208;4.432;2022-12-16T03:47:15;11.13;;;6.43;;
25299;SDS011;13241;51.208;4.432;2022-12-16T03:49:49;16.42;;;6.70;;
25299;SDS011;13241;51.208;4.432;2022-12-16T03:52:16;14.63;;;7.55;;
25299;SDS011;13241;51.208;4.432;2022-12-16T03:54:43;15.55;;;7.93;;
25299;SDS011;13241;51.208;4.432;2022-12-16T03:57:10;17.58;;;8.18;;
25299;SDS011;13241;51.208;4.432;2022-12-16T03:59:41;14.20;;;6.28;;
25299;SDS011;13241;51.208;4.432;2022-12-16T04:02:08;12.60;;;5.47;;
25299;SDS011;13241;51.208;4.432;2022-12-16T04:04:35;12.02;;;7.25;;
25299;SDS011;13241;51.208;4.432;2022-12-16T04:07:02;12.73;;;8.13;;
25299;SDS011;13241;51.208;4.432;2022-12-16T04:09:50;14.93;;;7.75;;
25299;SDS011;13241;51.208;4.432;2022-12-16T04:12:18;9.43;;;6.65;;
25299;SDS011;13241;51.208;4.432;2022-12-16T04:15:04;11.85;;;6.82;;
25299;SDS011;13241;51.208;4.432;2022-12-16T04:17:50;18.08;;;8.73;;
25299;SDS011;13241;51.208;4.432;2022-12-16T04:20:37;13.45;;;7.18;;
25299;SDS011;13241;51.208;4.432;2022-12-16T04:23:26;10.23;;;5.00;;
25299;SDS011;13241;51.208;4.432;2022-12-16T04:26:14;14.85;;;7.40;;
25299;SDS011;13241;51.208;4.432;2022-12-16T04:28:41;7.88;;;5.53;;
25299;SDS011;13241;51.208;4.432;2022-12-16T04:31:08;10.30;;;6.75;;
25299;SDS011;13241;51.208;4.432;2022-12-16T04:33:35;22.50;;;6.03;;
25299;SDS011;13241;51.208;4.432;2022-12-16T04:36:21;11.73;;;5.20;;
25299;SDS011;13241;51.208;4.432;2022-12-16T04:39:06;14.57;;;4.53;;
25299;SDS011;13241;51.208;4.432;2022-12-16T04:41:52;6.47;;;4.10;;
25299;SDS011;13241;51.208;4.432;2022-12-16T04:44:39;8.50;;;3.85;;
25299;SDS011;13241;51.208;4.432;2022-12-16T04:47:24;7.72;;;3.75;;
25299;SDS011;13241;51.208;4.432;2022-12-16T04:50:09;6.97;;;5.80;;
25299;SDS011;13241;51.208;4.432;2022-12-16T04:52:55;8.35;;;3.85;;
25299;SDS011;13241;51.208;4.432;2022-12-16T04:55:40;8.60;;;5.03;;
25299;SDS011;13241;51.208;4.432;2022-12-16T04:58:30;8.02;;;3.83;;
25299;SDS011;13241;51.208;4.432;2022-12-16T05:01:15;6.45;;;3.08;;
25299;SDS011;13241;51.208;4.432;2022-12-16T05:04:01;6.38;;;3.75;;
25299;SDS011;13241;51.208;4.432;2022-12-16T05:06:46;6.18;;;3.45;;
25299;SDS011;13241;51.208;4.432;2022-12-16T05:09:49;17.70;;;4.40;;
25299;SDS011;13241;51.208;4.432;2022-12-16T05:12:35;7.45;;;4.07;;
25299;SDS011;13241;51.208;4.432;2022-12-16T05:15:21;4.28;;;2.67;;
25299;SDS011;13241;51.208;4.432;2022-12-16T05:18:08;4.38;;;3.58;;
25299;SDS011;13241;51.208;4.432;2022-12-16T05:20:56;7.38;;;3.53;;
25299;SDS011;13241;51.208;4.432;2022-12-16T05:23:46;3.22;;;2.13;;
25299;SDS011;13241;51.208;4.432;2022-12-16T05:26:32;4.38;;;2.53;;
25299;SDS011;13241;51.208;4.432;2022-12-16T05:29:18;3.78;;;2.42;;
25299;SDS011;13241;51.208;4.432;2022-12-16T05:32:03;4.30;;;2.67;;
25299;SDS011;13241;51.208;4.432;2022-12-16T05:34:49;11.55;;;2.08;;
25299;SDS011;13241;51.208;4.432;2022-12-16T05:37:34;4.47;;;2.90;;
25299;SDS011;13241;51.208;4.432;2022-12-16T05:40:20;4.57;;;2.67;;
25299;SDS011;13241;51.208;4.432;2022-12-16T05:43:05;3.85;;;3.38;;
25299;SDS011;13241;51.208;4.432;2022-12-16T05:45:51;12.95;;;3.28;;
25299;SDS011;13241;51.208;4.432;2022-12-16T05:48:36;7.32;;;2.83;;
25299;SDS011;13241;51.208;4.432;2022-12-16T05:51:23;5.20;;;3.42;;
25299;SDS011;13241;51.208;4.432;2022-12-16T05:54:09;3.70;;;3.03;;
25299;SDS011;13241;51.208;4.432;2022-12-16T05:56:55;5.07;;;2.85;;
25299;SDS011;13241;51.208;4.432;2022-12-16T05:59:40;6.05;;;3.58;;
25299;SDS011;13241;51.208;4.432;2022-12-16T06:02:25;7.68;;;4.63;;
25299;SDS011;13241;51.208;4.432;2022-12-16T06:05:11;5.22;;;2.95;;
25299;SDS011;13241;51.208;4.432;2022-12-16T06:07:57;3.45;;;2.30;;
25299;SDS011;13241;51.208;4.432;2022-12-16T06:10:42;4.03;;;2.75;;
25299;SDS011;13241;51.208;4.432;2022-12-16T06:13:28;4.85;;;3.42;;
25299;SDS011;13241;51.208;4.432;2022-12-16T06:16:13;6.22;;;3.45;;
25299;SDS011;13241;51.208;4.432;2022-12-16T06:18:59;4.10;;;2.83;;
25299;SDS011;13241;51.208;4.432;2022-12-16T06:21:44;5.15;;;3.22;;
25299;SDS011;13241;51.208;4.432;2022-12-16T06:24:43;5.03;;;3.25;;
25299;SDS011;13241;51.208;4.432;2022-12-16T06:27:31;8.50;;;2.90;;
25299;SDS011;13241;51.208;4.432;2022-12-16T06:30:16;6.65;;;3.22;;
25299;SDS011;13241;51.208;4.432;2022-12-16T06:33:02;8.48;;;3.35;;
25299;SDS011;13241;51.208;4.432;2022-12-16T06:35:47;2.90;;;2.20;;
25299;SDS011;13241;51.208;4.432;2022-12-16T06:38:33;6.45;;;3.03;;
25299;SDS011;13241;51.208;4.432;2022-12-16T06:41:19;6.35;;;3.00;;
25299;SDS011;13241;51.208;4.432;2022-12-16T06:44:04;3.03;;;2.67;;
25299;SDS011;13241;51.208;4.432;2022-12-16T06:46:49;4.20;;;3.15;;
25299;SDS011;13241;51.208;4.432;2022-12-16T06:49:35;3.67;;;2.58;;
25299;SDS011;13241;51.208;4.432;2022-12-16T06:52:20;6.85;;;3.72;;
25299;SDS011;13241;51.208;4.432;2022-12-16T06:55:06;7.53;;;4.15;;
25299;SDS011;13241;51.208;4.432;2022-12-16T06:57:58;7.03;;;3.05;;
25299;SDS011;13241;51.208;4.432;2022-12-16T07:00:43;4.53;;;3.22;;
25299;SDS011;13241;51.208;4.432;2022-12-16T07:03:29;5.13;;;2.15;;
25299;SDS011;13241;51.208;4.432;2022-12-16T07:06:14;7.35;;;3.92;;
25299;SDS011;13241;51.208;4.432;2022-12-16T07:09:00;3.53;;;2.95;;
25299;SDS011;13241;51.208;4.432;2022-12-16T07:11:46;4.85;;;2.78;;
25299;SDS011;13241;51.208;4.432;2022-12-16T07:14:31;5.75;;;2.88;;
25299;SDS011;13241;51.208;4.432;2022-12-16T07:17:17;6.25;;;2.60;;
25299;SDS011;13241;51.208;4.432;2022-12-16T07:20:02;10.15;;;3.47;;
25299;SDS011;13241;51.208;4.432;2022-12-16T07:22:48;4.32;;;2.90;;
25299;SDS011;13241;51.208;4.432;2022-12-16T07:25:43;4.85;;;3.25;;
25299;SDS011;13241;51.208;4.432;2022-12-16T07:28:29;3.92;;;2.30;;
25299;SDS011;13241;51.208;4.432;2022-12-16T07:31:14;6.80;;;2.97;;
25299;SDS011;13241;51.208;4.432;2022-12-16T07:34:00;4.18;;;2.72;;
25299;SDS011;13241;51.208;4.432;2022-12-16T07:36:45;10.50;;;2.90;;
25299;SDS011;13241;51.208;4.432;2022-12-16T07:39:31;5.28;;;2.95;;
25299;SDS011;13241;51.208;4.432;2022-12-16T07:42:21;7.57;;;3.10;;
25299;SDS011;13241;51.208;4.432;2022-12-16T07:45:07;7.75;;;3.20;;
25299;SDS011;13241;51.208;4.432;2022-12-16T07:47:53;6.22;;;2.72;;
25299;SDS011;13241;51.208;4.432;2022-12-16T07:50:39;3.90;;;2.90;;
25299;SDS011;13241;51.208;4.432;2022-12-16T07:53:24;6.85;;;2.72;;
25299;SDS011;13241;51.208;4.432;2022-12-16T07:56:10;3.13;;;2.47;;
25299;SDS011;13241;51.208;4.432;2022-12-16T07:58:55;4.47;;;3.10;;
25299;SDS011;13241;51.208;4.432;2022-12-16T08:01:41;7.68;;;3.78;;
25299;SDS011;13241;51.208;4.432;2022-12-16T08:04:26;3.03;;;2.33;;
25299;SDS011;13241;51.208;4.432;2022-12-16T08:07:11;9.75;;;3.05;;
25299;SDS011;13241;51.208;4.432;2022-12-16T08:09:57;6.45;;;2.65;;
25299;SDS011;13241;51.208;4.432;2022-12-16T08:12:43;15.30;;;3.17;;
25299;SDS011;13241;51.208;4.432;2022-12-16T08:15:29;8.82;;;3.75;;
25299;SDS011;13241;51.208;4.432;2022-12-16T08:18:14;15.02;;;3.33;;
25299;SDS011;13241;51.208;4.432;2022-12-16T08:21:00;3.22;;;2.28;;
25299;SDS011;13241;51.208;4.432;2022-12-16T08:23:46;5.50;;;3.42;;
25299;SDS011;13241;51.208;4.432;2022-12-16T08:26:32;3.25;;;2.92;;
25299;SDS011;13241;51.208;4.432;2022-12-16T08:29:17;6.32;;;3.22;;
25299;SDS011;13241;51.208;4.432;2022-12-16T08:32:15;7.13;;;3.90;;
25299;SDS011;13241;51.208;4.432;2022-12-16T08:35:01;4.50;;;2.55;;
25299;SDS011;13241;51.208;4.432;2022-12-16T08:37:46;3.85;;;2.58;;
25299;SDS011;13241;51.208;4.432;2022-12-16T08:40:39;4.88;;;2.72;;
25299;SDS011;13241;51.208;4.432;2022-12-16T08:43:32;5.65;;;3.70;;
25299;SDS011;13241;51.208;4.432;2022-12-16T08:46:21;3.30;;;2.75;;
25299;SDS011;13241;51.208;4.432;2022-12-16T08:49:06;3.97;;;2.55;;
25299;SDS011;13241;51.208;4.432;2022-12-16T08:51:52;4.70;;;2.95;;
25299;SDS011;13241;51.208;4.432;2022-12-16T08:54:37;5.38;;;3.58;;
25299;SDS011;13241;51.208;4.432;2022-12-16T08:57:25;6.38;;;4.07;;
25299;SDS011;13241;51.208;4.432;2022-12-16T09:00:11;2.55;;;2.35;;
25299;SDS011;13241;51.208;4.432;2022-12-16T09:02:57;4.82;;;2.08;;
25299;SDS011;13241;51.208;4.432;2022-12-16T09:05:43;2.70;;;2.15;;
25299;SDS011;13241;51.208;4.432;2022-12-16T09:08:29;5.93;;;3.72;;
25299;SDS011;13241;51.208;4.432;2022-12-16T09:11:15;5.15;;;2.50;;
25299;SDS011;13241;51.208;4.432;2022-12-16T09:14:00;2.92;;;2.38;;
25299;SDS011;13241;51.208;4.432;2022-12-16T09:16:46;5.93;;;3.17;;
25299;SDS011;13241;51.208;4.432;2022-12-16T09:19:32;3.65;;;2.75;;
25299;SDS011;13241;51.208;4.432;2022-12-16T09:22:19;5.90;;;3.28;;
25299;SDS011;13241;51.208;4.432;2022-12-16T09:25:04;3.13;;;2.40;;
25299;SDS011;13241;51.208;4.432;2022-12-16T09:27:50;3.67;;;2.47;;
25299;SDS011;13241;51.208;4.432;2022-12-16T09:30:36;6.78;;;2.13;;
25299;SDS011;13241;51.208;4.432;2022-12-16T09:33:21;3.50;;;2.35;;
25299;SDS011;13241;51.208;4.432;2022-12-16T09:36:07;17.92;;;5.35;;
25299;SDS011;13241;51.208;4.432;2022-12-16T09:38:52;8.45;;;3.38;;
25299;SDS011;13241;51.208;4.432;2022-12-16T09:41:40;3.15;;;2.03;;
25299;SDS011;13241;51.208;4.432;2022-12-16T09:50:27;4.82;;;2.55;;
25299;SDS011;13241;51.208;4.432;2022-12-16T09:53:19;2.53;;;2.03;;
25299;SDS011;13241;51.208;4.432;2022-12-16T09:56:08;2.22;;;1.98;;
25299;SDS011;13241;51.208;4.432;2022-12-16T09:59:01;3.95;;;1.90;;
25299;SDS011;13241;51.208;4.432;2022-12-16T10:01:50;9.35;;;2.45;;
25299;SDS011;13241;51.208;4.432;2022-12-16T10:04:36;2.33;;;2.13;;
25299;SDS011;13241;51.208;4.432;2022-12-16T10:07:22;9.55;;;2.63;;
25299;SDS011;13241;51.208;4.432;2022-12-16T10:22:32;3.53;;;1.77;;
25299;SDS011;13241;51.208;4.432;2022-12-16T10:25:28;1.85;;;1.50;;
25299;SDS011;13241;51.208;4.432;2022-12-16T10:28:28;2.17;;;2.00;;
25299;SDS011;13241;51.208;4.432;2022-12-16T10:31:27;2.28;;;1.88;;
25299;SDS011;13241;51.208;4.432;2022-12-16T10:34:15;5.32;;;2.83;;
25299;SDS011;13241;51.208;4.432;2022-12-16T10:37:03;4.25;;;2.17;;
25299;SDS011;13241;51.208;4.432;2022-12-16T10:39:58;3.03;;;2.08;;
25299;SDS011;13241;51.208;4.432;2022-12-16T10:42:47;4.07;;;3.08;;
25299;SDS011;13241;51.208;4.432;2022-12-16T10:45:39;8.48;;;2.28;;
25299;SDS011;13241;51.208;4.432;2022-12-16T10:48:29;3.22;;;2.58;;
25299;SDS011;13241;51.208;4.432;2022-12-16T10:51:25;2.65;;;2.45;;
25299;SDS011;13241;51.208;4.432;2022-12-16T10:57:12;8.50;;;2.40;;
25299;SDS011;13241;51.208;4.432;2022-12-16T11:00:15;4.45;;;2.95;;
25299;SDS011;13241;51.208;4.432;2022-12-16T11:03:17;2.10;;;1.45;;
25299;SDS011;13241;51.208;4.432;2022-12-16T11:06:06;5.43;;;2.25;;
25299;SDS011;13241;51.208;4.432;2022-12-16T11:08:52;11.20;;;2.95;;
25299;SDS011;13241;51.208;4.432;2022-12-16T11:11:38;4.68;;;2.42;;
25299;SDS011;13241;51.208;4.432;2022-12-16T11:17:29;4.25;;;2.78;;
25299;SDS011;13241;51.208;4.432;2022-12-16T11:20:21;2.78;;;1.90;;
25299;SDS011;13241;51.208;4.432;2022-12-16T11:23:18;2.33;;;1.88;;
25299;SDS011;13241;51.208;4.432;2022-12-16T11:26:10;3.45;;;2.10;;
25299;SDS011;13241;51.208;4.432;2022-12-16T11:35:11;6.32;;;2.10;;
25299;SDS011;13241;51.208;4.432;2022-12-16T11:38:00;3.30;;;2.43;;
25299;SDS011;13241;51.208;4.432;2022-12-16T11:40:47;7.80;;;2.35;;
25299;SDS011;13241;51.208;4.432;2022-12-16T11:43:34;6.38;;;3.15;;
25299;SDS011;13241;51.208;4.432;2022-12-16T11:46:25;2.33;;;1.55;;
25299;SDS011;13241;51.208;4.432;2022-12-16T11:49:20;3.03;;;1.70;;
25299;SDS011;13241;51.208;4.432;2022-12-16T11:52:19;4.47;;;2.80;;
25299;SDS011;13241;51.208;4.432;2022-12-16T11:58:27;2.78;;;2.38;;
25299;SDS011;13241;51.208;4.432;2022-12-16T12:01:28;3.20;;;2.20;;
25299;SDS011;13241;51.208;4.432;2022-12-16T12:04:21;2.55;;;2.03;;
25299;SDS011;13241;51.208;4.432;2022-12-16T12:19:23;2.90;;;2.42;;
25299;SDS011;13241;51.208;4.432;2022-12-16T12:22:33;5.28;;;2.35;;
25299;SDS011;13241;51.208;4.432;2022-12-16T12:31:37;2.95;;;1.85;;
25299;SDS011;13241;51.208;4.432;2022-12-16T12:37:35;8.10;;;2.95;;
25299;SDS011;13241;51.208;4.432;2022-12-16T12:49:42;4.25;;;1.77;;
25299;SDS011;13241;51.208;4.432;2022-12-16T12:58:48;4.90;;;1.98;;
25299;SDS011;13241;51.208;4.432;2022-12-16T13:01:37;2.85;;;1.88;;
25299;SDS011;13241;51.208;4.432;2022-12-16T13:04:26;4.80;;;2.45;;
25299;SDS011;13241;51.208;4.432;2022-12-16T13:07:14;5.63;;;2.08;;
25299;SDS011;13241;51.208;4.432;2022-12-16T13:15:59;1.98;;;1.50;;
25299;SDS011;13241;51.208;4.432;2022-12-16T13:18:46;6.75;;;2.72;;
25299;SDS011;13241;51.208;4.432;2022-12-16T13:27:14;6.85;;;1.77;;
25299;SDS011;13241;51.208;4.432;2022-12-16T13:30:03;8.50;;;2.08;;
25299;SDS011;13241;51.208;4.432;2022-12-16T13:32:56;11.70;;;2.35;;
25299;SDS011;13241;51.208;4.432;2022-12-16T13:35:53;1.35;;;1.25;;
25299;SDS011;13241;51.208;4.432;2022-12-16T13:38:43;2.30;;;1.27;;
25299;SDS011;13241;51.208;4.432;2022-12-16T13:53:24;4.65;;;1.88;;
25299;SDS011;13241;51.208;4.432;2022-12-16T13:56:15;3.10;;;2.05;;
25299;SDS011;13241;51.208;4.432;2022-12-16T13:59:15;6.85;;;2.38;;
25299;SDS011;13241;51.208;4.432;2022-12-16T14:05:17;7.25;;;2.20;;
25299;SDS011;13241;51.208;4.432;2022-12-16T14:08:10;7.30;;;1.58;;
25299;SDS011;13241;51.208;4.432;2022-12-16T14:11:04;2.65;;;1.65;;
25299;SDS011;13241;51.208;4.432;2022-12-16T14:14:08;10.10;;;1.95;;
25299;SDS011;13241;51.208;4.432;2022-12-16T14:17:02;1.17;;;1.07;;
25299;SDS011;13241;51.208;4.432;2022-12-16T14:19:59;3.38;;;1.20;;
25299;SDS011;13241;51.208;4.432;2022-12-16T14:23:40;3.60;;;2.17;;
25299;SDS011;13241;51.208;4.432;2022-12-16T14:26:22;5.30;;;1.40;;
25299;SDS011;13241;51.208;4.432;2022-12-16T14:29:25;4.00;;;1.73;;
25299;SDS011;13241;51.208;4.432;2022-12-16T14:32:31;8.00;;;2.30;;
25299;SDS011;13241;51.208;4.432;2022-12-16T14:38:24;8.80;;;2.22;;
25299;SDS011;13241;51.208;4.432;2022-12-16T14:41:17;2.58;;;1.25;;
25299;SDS011;13241;51.208;4.432;2022-12-16T14:44:15;1.58;;;1.48;;
25299;SDS011;13241;51.208;4.432;2022-12-16T14:47:02;2.53;;;1.58;;
25299;SDS011;13241;51.208;4.432;2022-12-16T14:49:51;1.88;;;1.25;;
25299;SDS011;13241;51.208;4.432;2022-12-16T14:52:38;3.90;;;1.85;;
25299;SDS011;13241;51.208;4.432;2022-12-16T14:55:29;3.63;;;2.20;;
25299;SDS011;13241;51.208;4.432;2022-12-16T14:58:20;3.17;;;2.03;;
25299;SDS011;13241;51.208;4.432;2022-12-16T15:04:03;2.92;;;1.52;;
25299;SDS011;13241;51.208;4.432;2022-12-16T15:06:57;3.38;;;1.73;;
25299;SDS011;13241;51.208;4.432;2022-12-16T15:09:45;3.58;;;3.22;;
25299;SDS011;13241;51.208;4.432;2022-12-16T15:12:36;6.78;;;1.55;;
25299;SDS011;13241;51.208;4.432;2022-12-16T15:21:22;4.63;;;1.70;;
25299;SDS011;13241;51.208;4.432;2022-12-16T15:24:08;6.90;;;2.58;;
25299;SDS011;13241;51.208;4.432;2022-12-16T15:33:42;9.35;;;2.35;;
25299;SDS011;13241;51.208;4.432;2022-12-16T15:36:27;3.40;;;2.42;;
25299;SDS011;13241;51.208;4.432;2022-12-16T15:39:19;2.35;;;2.10;;
25299;SDS011;13241;51.208;4.432;2022-12-16T15:42:21;7.05;;;2.42;;
25299;SDS011;13241;51.208;4.432;2022-12-16T15:48:06;2.92;;;1.77;;
25299;SDS011;13241;51.208;4.432;2022-12-16T15:51:19;4.53;;;2.17;;
25299;SDS011;13241;51.208;4.432;2022-12-16T15:54:16;6.18;;;2.65;;
25299;SDS011;13241;51.208;4.432;2022-12-16T15:57:23;4.35;;;2.90;;
25299;SDS011;13241;51.208;4.432;2022-12-16T16:00:22;9.18;;;3.75;;
25299;SDS011;13241;51.208;4.432;2022-12-16T16:06:02;4.28;;;3.00;;
25299;SDS011;13241;51.208;4.432;2022-12-16T16:08:50;4.95;;;3.05;;
25299;SDS011;13241;51.208;4.432;2022-12-16T16:11:38;9.90;;;3.45;;
25299;SDS011;13241;51.208;4.432;2022-12-16T16:14:24;10.30;;;4.68;;
25299;SDS011;13241;51.208;4.432;2022-12-16T16:17:26;10.93;;;4.05;;
25299;SDS011;13241;51.208;4.432;2022-12-16T16:20:15;5.32;;;3.10;;
25299;SDS011;13241;51.208;4.432;2022-12-16T16:23:01;12.13;;;3.60;;
25299;SDS011;13241;51.208;4.432;2022-12-16T16:25:47;7.43;;;3.08;;
25299;SDS011;13241;51.208;4.432;2022-12-16T16:28:33;10.80;;;3.67;;
25299;SDS011;13241;51.208;4.432;2022-12-16T16:31:19;3.75;;;2.75;;
25299;SDS011;13241;51.208;4.432;2022-12-16T16:34:05;6.68;;;3.78;;
25299;SDS011;13241;51.208;4.432;2022-12-16T16:36:54;5.82;;;3.38;;
25299;SDS011;13241;51.208;4.432;2022-12-16T16:39:41;5.72;;;3.60;;
25299;SDS011;13241;51.208;4.432;2022-12-16T16:42:28;6.00;;;3.25;;
25299;SDS011;13241;51.208;4.432;2022-12-16T16:45:13;3.35;;;2.13;;
25299;SDS011;13241;51.208;4.432;2022-12-16T16:48:08;24.80;;;5.13;;
25299;SDS011;13241;51.208;4.432;2022-12-16T16:50:56;7.63;;;4.35;;
25299;SDS011;13241;51.208;4.432;2022-12-16T16:53:43;8.38;;;3.60;;
25299;SDS011;13241;51.208;4.432;2022-12-16T16:56:32;7.80;;;3.00;;
25299;SDS011;13241;51.208;4.432;2022-12-16T16:59:22;7.47;;;4.40;;
25299;SDS011;13241;51.208;4.432;2022-12-16T17:02:16;10.45;;;4.88;;
25299;SDS011;13241;51.208;4.432;2022-12-16T17:05:07;7.88;;;2.97;;
25299;SDS011;13241;51.208;4.432;2022-12-16T17:07:54;8.02;;;3.45;;
25299;SDS011;13241;51.208;4.432;2022-12-16T17:10:40;8.88;;;3.55;;
25299;SDS011;13241;51.208;4.432;2022-12-16T17:13:26;4.13;;;2.65;;
25299;SDS011;13241;51.208;4.432;2022-12-16T17:16:12;10.88;;;3.72;;
25299;SDS011;13241;51.208;4.432;2022-12-16T17:19:00;13.07;;;5.55;;
25299;SDS011;13241;51.208;4.432;2022-12-16T17:21:47;7.22;;;4.15;;
25299;SDS011;13241;51.208;4.432;2022-12-16T17:24:33;6.03;;;3.38;;
25299;SDS011;13241;51.208;4.432;2022-12-16T17:27:23;7.50;;;4.25;;
25299;SDS011;13241;51.208;4.432;2022-12-16T17:30:16;7.60;;;3.55;;
25299;SDS011;13241;51.208;4.432;2022-12-16T17:33:12;6.57;;;3.80;;
25299;SDS011;13241;51.208;4.432;2022-12-16T17:36:08;9.93;;;4.30;;
25299;SDS011;13241;51.208;4.432;2022-12-16T17:38:57;12.15;;;4.60;;
25299;SDS011;13241;51.208;4.432;2022-12-16T17:41:54;6.60;;;3.90;;
25299;SDS011;13241;51.208;4.432;2022-12-16T17:44:40;5.18;;;3.28;;
25299;SDS011;13241;51.208;4.432;2022-12-16T17:47:25;7.38;;;3.75;;
25299;SDS011;13241;51.208;4.432;2022-12-16T17:50:11;8.43;;;3.50;;
25299;SDS011;13241;51.208;4.432;2022-12-16T17:52:57;15.18;;;5.45;;
25299;SDS011;13241;51.208;4.432;2022-12-16T17:55:43;12.98;;;4.63;;
25299;SDS011;13241;51.208;4.432;2022-12-16T17:58:32;9.80;;;4.32;;
25299;SDS011;13241;51.208;4.432;2022-12-16T18:01:20;7.82;;;4.55;;
25299;SDS011;13241;51.208;4.432;2022-12-16T18:04:06;8.77;;;3.97;;
25299;SDS011;13241;51.208;4.432;2022-12-16T18:06:53;10.30;;;5.10;;
25299;SDS011;13241;51.208;4.432;2022-12-16T18:09:38;7.85;;;4.05;;
25299;SDS011;13241;51.208;4.432;2022-12-16T18:12:23;10.55;;;5.18;;
25299;SDS011;13241;51.208;4.432;2022-12-16T18:15:11;20.02;;;4.75;;
25299;SDS011;13241;51.208;4.432;2022-12-16T18:17:56;11.18;;;4.75;;
25299;SDS011;13241;51.208;4.432;2022-12-16T18:20:42;10.07;;;4.47;;
25299;SDS011;13241;51.208;4.432;2022-12-16T18:23:28;13.55;;;4.32;;
25299;SDS011;13241;51.208;4.432;2022-12-16T18:26:14;11.43;;;4.65;;
25299;SDS011;13241;51.208;4.432;2022-12-16T18:29:00;7.20;;;4.10;;
25299;SDS011;13241;51.208;4.432;2022-12-16T18:31:47;7.40;;;5.07;;
25299;SDS011;13241;51.208;4.432;2022-12-16T18:34:34;7.15;;;4.40;;
25299;SDS011;13241;51.208;4.432;2022-12-16T18:37:19;9.95;;;4.80;;
25299;SDS011;13241;51.208;4.432;2022-12-16T18:40:06;6.65;;;3.92;;
25299;SDS011;13241;51.208;4.432;2022-12-16T18:42:52;11.45;;;4.80;;
25299;SDS011;13241;51.208;4.432;2022-12-16T18:45:38;11.25;;;5.88;;
25299;SDS011;13241;51.208;4.432;2022-12-16T18:48:24;18.90;;;7.28;;
25299;SDS011;13241;51.208;4.432;2022-12-16T18:51:09;10.95;;;4.47;;
25299;SDS011;13241;51.208;4.432;2022-12-16T18:53:55;9.02;;;5.18;;
25299;SDS011;13241;51.208;4.432;2022-12-16T18:56:41;13.82;;;5.65;;
25299;SDS011;13241;51.208;4.432;2022-12-16T18:59:34;10.68;;;5.18;;